Arka, Russia
Current Conditions -  °F | °C
As of 1:30 PM on Monday 24 Nov 2014 (Local Time) from UHMM Reporting Station
Scattered Clouds Scattered Clouds  
Wind Chill:   Ceiling: Unl
Heat Index:   Visibility: 6mi
Dew Point: -6°   Wind: 0mph
Humidity: 66%   Direction: NA
Pressure: 29.71"   Gusts: NA
Location:  60.08°N, 142.33°E
Report Text: UHMM 240330Z 00000MPS 9999 SCT100 M16/M21 Q1006 NOSIG RMKQFE740 88490150
Loading
Personal Weather Stations






























Interactive Weather Map New forecast layout! Learn more

10-Day Weather Forecast

Advertisements
Track Severe Weather on mobile